sensor_id;sensor_type;location;lat;lon;timestamp;P1;durP1;ratioP1;P2;durP2;ratioP2
23346;SDS011;36852;45.466;11.066;2024-02-14T06:48:01;15.53;;;8.63;;
23346;SDS011;36852;45.466;11.066;2024-02-14T06:50:55;14.53;;;7.80;;
23346;SDS011;36852;45.466;11.066;2024-02-14T06:53:57;14.05;;;6.90;;
23346;SDS011;36852;45.466;11.066;2024-02-14T06:56:49;12.82;;;7.17;;
23346;SDS011;36852;45.466;11.066;2024-02-14T06:59:41;16.48;;;8.38;;
23346;SDS011;36852;45.466;11.066;2024-02-14T07:02:34;12.07;;;7.47;;
23346;SDS011;36852;45.466;11.066;2024-02-14T07:05:26;18.02;;;9.23;;
23346;SDS011;36852;45.466;11.066;2024-02-14T07:08:18;16.12;;;10.50;;
23346;SDS011;36852;45.466;11.066;2024-02-14T07:11:17;17.87;;;10.70;;
23346;SDS011;36852;45.466;11.066;2024-02-14T07:14:15;17.30;;;9.75;;
23346;SDS011;36852;45.466;11.066;2024-02-14T07:17:11;16.23;;;10.20;;
23346;SDS011;36852;45.466;11.066;2024-02-14T07:20:04;16.95;;;10.98;;
23346;SDS011;36852;45.466;11.066;2024-02-14T07:23:04;17.00;;;11.00;;
23346;SDS011;36852;45.466;11.066;2024-02-14T07:26:02;17.37;;;10.75;;
23346;SDS011;36852;45.466;11.066;2024-02-14T07:28:36;17.85;;;10.82;;
23346;SDS011;36852;45.466;11.066;2024-02-14T07:31:07;17.55;;;11.65;;
23346;SDS011;36852;45.466;11.066;2024-02-14T07:33:41;16.90;;;10.72;;
23346;SDS011;36852;45.466;11.066;2024-02-14T07:36:16;13.68;;;9.65;;
23346;SDS011;36852;45.466;11.066;2024-02-14T07:38:46;16.37;;;10.35;;
23346;SDS011;36852;45.466;11.066;2024-02-14T07:41:18;13.22;;;9.00;;
23346;SDS011;36852;45.466;11.066;2024-02-14T07:43:50;15.43;;;9.73;;
23346;SDS011;36852;45.466;11.066;2024-02-14T07:46:48;13.85;;;8.95;;
23346;SDS011;36852;45.466;11.066;2024-02-14T07:49:34;14.03;;;8.70;;
23346;SDS011;36852;45.466;11.066;2024-02-14T07:52:04;14.13;;;8.80;;
23346;SDS011;36852;45.466;11.066;2024-02-14T07:57:36;16.07;;;10.08;;
23346;SDS011;36852;45.466;11.066;2024-02-14T08:00:31;15.28;;;9.30;;
23346;SDS011;36852;45.466;11.066;2024-02-14T08:03:22;15.38;;;9.70;;
23346;SDS011;36852;45.466;11.066;2024-02-14T08:06:15;13.28;;;9.95;;
23346;SDS011;36852;45.466;11.066;2024-02-14T08:09:08;14.53;;;9.45;;
23346;SDS011;36852;45.466;11.066;2024-02-14T08:11:59;13.45;;;9.93;;
23346;SDS011;36852;45.466;11.066;2024-02-14T08:14:56;13.25;;;9.33;;
23346;SDS011;36852;45.466;11.066;2024-02-14T08:17:47;14.35;;;9.13;;
23346;SDS011;36852;45.466;11.066;2024-02-14T08:20:42;15.23;;;8.65;;
23346;SDS011;36852;45.466;11.066;2024-02-14T08:23:36;12.78;;;8.60;;
23346;SDS011;36852;45.466;11.066;2024-02-14T08:26:29;21.10;;;9.85;;
23346;SDS011;36852;45.466;11.066;2024-02-14T08:29:23;13.95;;;8.48;;
23346;SDS011;36852;45.466;11.066;2024-02-14T08:32:22;16.67;;;8.43;;
23346;SDS011;36852;45.466;11.066;2024-02-14T09:22:38;15.53;;;10.32;;
23346;SDS011;36852;45.466;11.066;2024-02-14T09:25:08;13.03;;;8.90;;
23346;SDS011;36852;45.466;11.066;2024-02-14T09:27:37;14.55;;;9.05;;
23346;SDS011;36852;45.466;11.066;2024-02-14T09:30:10;15.78;;;9.65;;
23346;SDS011;36852;45.466;11.066;2024-02-14T09:32:42;13.78;;;8.95;;
23346;SDS011;36852;45.466;11.066;2024-02-14T09:35:14;13.00;;;8.90;;
23346;SDS011;36852;45.466;11.066;2024-02-14T09:37:45;12.00;;;8.88;;
23346;SDS011;36852;45.466;11.066;2024-02-14T09:40:14;14.47;;;8.50;;
23346;SDS011;36852;45.466;11.066;2024-02-14T09:42:53;13.22;;;8.70;;
23346;SDS011;36852;45.466;11.066;2024-02-14T09:45:28;15.72;;;9.13;;
23346;SDS011;36852;45.466;11.066;2024-02-14T09:47:58;15.45;;;9.13;;
23346;SDS011;36852;45.466;11.066;2024-02-14T09:50:28;11.88;;;8.63;;
23346;SDS011;36852;45.466;11.066;2024-02-14T09:53:00;13.30;;;9.38;;
23346;SDS011;36852;45.466;11.066;2024-02-14T09:55:30;15.05;;;8.93;;
23346;SDS011;36852;45.466;11.066;2024-02-14T09:58:00;14.60;;;7.80;;
23346;SDS011;36852;45.466;11.066;2024-02-14T10:00:31;12.30;;;8.63;;
23346;SDS011;36852;45.466;11.066;2024-02-14T10:02:59;10.35;;;8.30;;
23346;SDS011;36852;45.466;11.066;2024-02-14T10:05:29;11.43;;;7.95;;
23346;SDS011;36852;45.466;11.066;2024-02-14T10:07:57;9.93;;;7.70;;
23346;SDS011;36852;45.466;11.066;2024-02-14T10:10:25;11.85;;;7.72;;
23346;SDS011;36852;45.466;11.066;2024-02-14T10:12:54;10.20;;;7.55;;
23346;SDS011;36852;45.466;11.066;2024-02-14T10:15:25;14.13;;;8.10;;
23346;SDS011;36852;45.466;11.066;2024-02-14T10:17:57;13.10;;;8.80;;
23346;SDS011;36852;45.466;11.066;2024-02-14T10:20:27;10.93;;;8.40;;
23346;SDS011;36852;45.466;11.066;2024-02-14T10:23:01;12.40;;;8.83;;
23346;SDS011;36852;45.466;11.066;2024-02-14T10:25:31;10.38;;;8.33;;
23346;SDS011;36852;45.466;11.066;2024-02-14T10:28:04;12.90;;;8.38;;
23346;SDS011;36852;45.466;11.066;2024-02-14T10:30:36;11.03;;;8.90;;
23346;SDS011;36852;45.466;11.066;2024-02-14T10:33:08;14.55;;;9.68;;
23346;SDS011;36852;45.466;11.066;2024-02-14T10:35:39;11.75;;;8.18;;
23346;SDS011;36852;45.466;11.066;2024-02-14T10:38:11;12.07;;;8.75;;
23346;SDS011;36852;45.466;11.066;2024-02-14T10:40:39;10.48;;;8.18;;
23346;SDS011;36852;45.466;11.066;2024-02-14T10:43:10;11.20;;;8.40;;
23346;SDS011;36852;45.466;11.066;2024-02-14T10:45:42;12.33;;;8.20;;
23346;SDS011;36852;45.466;11.066;2024-02-14T10:48:30;11.97;;;8.25;;
23346;SDS011;36852;45.466;11.066;2024-02-14T10:51:02;12.93;;;8.65;;
23346;SDS011;36852;45.466;11.066;2024-02-14T10:53:35;13.80;;;8.68;;
23346;SDS011;36852;45.466;11.066;2024-02-14T10:56:28;17.45;;;9.18;;
23346;SDS011;36852;45.466;11.066;2024-02-14T10:59:03;13.78;;;8.93;;
23346;SDS011;36852;45.466;11.066;2024-02-14T11:01:38;15.45;;;9.63;;
23346;SDS011;36852;45.466;11.066;2024-02-14T11:04:11;13.93;;;9.80;;
23346;SDS011;36852;45.466;11.066;2024-02-14T11:06:51;17.92;;;9.68;;
23346;SDS011;36852;45.466;11.066;2024-02-14T11:12:12;16.05;;;8.78;;
23346;SDS011;36852;45.466;11.066;2024-02-14T11:14:56;17.12;;;9.08;;
23346;SDS011;36852;45.466;11.066;2024-02-14T11:17:29;16.77;;;9.23;;
23346;SDS011;36852;45.466;11.066;2024-02-14T11:20:11;15.03;;;10.50;;
23346;SDS011;36852;45.466;11.066;2024-02-14T11:23:05;14.33;;;9.70;;
23346;SDS011;36852;45.466;11.066;2024-02-14T11:25:40;14.20;;;9.90;;
23346;SDS011;36852;45.466;11.066;2024-02-14T11:28:18;18.85;;;10.08;;
23346;SDS011;36852;45.466;11.066;2024-02-14T11:31:16;15.28;;;9.90;;
23346;SDS011;36852;45.466;11.066;2024-02-14T11:33:48;19.42;;;10.03;;
23346;SDS011;36852;45.466;11.066;2024-02-14T11:36:18;15.23;;;9.43;;
23346;SDS011;36852;45.466;11.066;2024-02-14T11:39:06;17.77;;;9.83;;
23346;SDS011;36852;45.466;11.066;2024-02-14T11:41:36;12.63;;;9.97;;
23346;SDS011;36852;45.466;11.066;2024-02-14T11:44:30;19.52;;;10.23;;
23346;SDS011;36852;45.466;11.066;2024-02-14T11:46:59;20.45;;;11.33;;
23346;SDS011;36852;45.466;11.066;2024-02-14T11:49:35;18.95;;;10.32;;
23346;SDS011;36852;45.466;11.066;2024-02-14T11:52:05;17.90;;;10.82;;
23346;SDS011;36852;45.466;11.066;2024-02-14T11:54:51;19.02;;;10.13;;
23346;SDS011;36852;45.466;11.066;2024-02-14T11:57:17;14.93;;;10.48;;
23346;SDS011;36852;45.466;11.066;2024-02-14T11:59:52;15.72;;;10.48;;
23346;SDS011;36852;45.466;11.066;2024-02-14T12:02:30;20.40;;;9.90;;
23346;SDS011;36852;45.466;11.066;2024-02-14T12:05:02;15.43;;;10.15;;
23346;SDS011;36852;45.466;11.066;2024-02-14T12:13:49;16.55;;;11.05;;
23346;SDS011;36852;45.466;11.066;2024-02-14T12:45:32;18.45;;;10.55;;
23346;SDS011;36852;45.466;11.066;2024-02-14T12:48:02;12.93;;;8.65;;
23346;SDS011;36852;45.466;11.066;2024-02-14T12:50:34;17.75;;;9.40;;
23346;SDS011;36852;45.466;11.066;2024-02-14T12:53:04;17.37;;;10.48;;
23346;SDS011;36852;45.466;11.066;2024-02-14T12:55:34;19.10;;;11.40;;
23346;SDS011;36852;45.466;11.066;2024-02-14T12:58:10;15.18;;;10.35;;
23346;SDS011;36852;45.466;11.066;2024-02-14T13:00:42;18.87;;;11.78;;
23346;SDS011;36852;45.466;11.066;2024-02-14T13:03:12;17.25;;;10.15;;
23346;SDS011;36852;45.466;11.066;2024-02-14T13:05:42;18.57;;;11.33;;
23346;SDS011;36852;45.466;11.066;2024-02-14T13:08:13;15.78;;;11.22;;
23346;SDS011;36852;45.466;11.066;2024-02-14T13:10:43;17.50;;;12.03;;
23346;SDS011;36852;45.466;11.066;2024-02-14T13:13:11;22.22;;;11.25;;
23346;SDS011;36852;45.466;11.066;2024-02-14T13:15:41;20.70;;;12.90;;
23346;SDS011;36852;45.466;11.066;2024-02-14T13:18:11;17.20;;;11.03;;
23346;SDS011;36852;45.466;11.066;2024-02-14T13:20:42;18.10;;;11.65;;
23346;SDS011;36852;45.466;11.066;2024-02-14T13:23:12;18.62;;;12.20;;
23346;SDS011;36852;45.466;11.066;2024-02-14T13:25:45;16.48;;;12.05;;
23346;SDS011;36852;45.466;11.066;2024-02-14T13:28:36;19.73;;;12.78;;
23346;SDS011;36852;45.466;11.066;2024-02-14T14:22:01;18.00;;;11.75;;
23346;SDS011;36852;45.466;11.066;2024-02-14T14:24:29;19.65;;;11.97;;
23346;SDS011;36852;45.466;11.066;2024-02-14T14:27:15;18.70;;;11.45;;
23346;SDS011;36852;45.466;11.066;2024-02-14T14:30:05;25.85;;;12.10;;
23346;SDS011;36852;45.466;11.066;2024-02-14T14:32:35;21.07;;;12.45;;
23346;SDS011;36852;45.466;11.066;2024-02-14T14:37:51;22.00;;;12.18;;
23346;SDS011;36852;45.466;11.066;2024-02-14T14:40:22;21.25;;;13.28;;
23346;SDS011;36852;45.466;11.066;2024-02-14T14:42:52;21.20;;;12.70;;
23346;SDS011;36852;45.466;11.066;2024-02-14T14:45:23;21.75;;;12.70;;
23346;SDS011;36852;45.466;11.066;2024-02-14T14:47:54;18.60;;;12.25;;
23346;SDS011;36852;45.466;11.066;2024-02-14T14:50:23;21.65;;;13.00;;
23346;SDS011;36852;45.466;11.066;2024-02-14T14:52:52;21.30;;;12.63;;
23346;SDS011;36852;45.466;11.066;2024-02-14T14:55:21;21.80;;;14.60;;
23346;SDS011;36852;45.466;11.066;2024-02-14T14:57:49;21.42;;;12.63;;
23346;SDS011;36852;45.466;11.066;2024-02-14T15:00:18;24.27;;;13.48;;
23346;SDS011;36852;45.466;11.066;2024-02-14T15:02:46;21.77;;;13.48;;
23346;SDS011;36852;45.466;11.066;2024-02-14T15:05:14;25.45;;;13.80;;
23346;SDS011;36852;45.466;11.066;2024-02-14T15:07:45;21.65;;;13.00;;
23346;SDS011;36852;45.466;11.066;2024-02-14T15:10:14;21.35;;;13.25;;
23346;SDS011;36852;45.466;11.066;2024-02-14T15:12:42;20.43;;;14.45;;
23346;SDS011;36852;45.466;11.066;2024-02-14T15:15:10;21.52;;;14.47;;
23346;SDS011;36852;45.466;11.066;2024-02-14T15:17:41;22.22;;;13.85;;
23346;SDS011;36852;45.466;11.066;2024-02-14T15:20:10;24.87;;;14.20;;
23346;SDS011;36852;45.466;11.066;2024-02-14T15:22:40;26.35;;;16.17;;
23346;SDS011;36852;45.466;11.066;2024-02-14T15:25:08;25.80;;;16.87;;
23346;SDS011;36852;45.466;11.066;2024-02-14T15:27:36;23.83;;;14.78;;
23346;SDS011;36852;45.466;11.066;2024-02-14T15:30:24;25.55;;;16.65;;
23346;SDS011;36852;45.466;11.066;2024-02-14T15:33:14;28.00;;;15.45;;
23346;SDS011;36852;45.466;11.066;2024-02-14T15:35:52;25.95;;;16.65;;
23346;SDS011;36852;45.466;11.066;2024-02-14T15:38:22;31.12;;;18.27;;
23346;SDS011;36852;45.466;11.066;2024-02-14T15:40:51;30.72;;;17.42;;
23346;SDS011;36852;45.466;11.066;2024-02-14T15:43:22;25.02;;;16.60;;
23346;SDS011;36852;45.466;11.066;2024-02-14T15:45:52;26.73;;;17.30;;
23346;SDS011;36852;45.466;11.066;2024-02-14T15:48:21;26.75;;;17.07;;
23346;SDS011;36852;45.466;11.066;2024-02-14T15:50:51;28.00;;;18.15;;
23346;SDS011;36852;45.466;11.066;2024-02-14T15:53:20;27.65;;;17.10;;
23346;SDS011;36852;45.466;11.066;2024-02-14T15:55:48;24.70;;;17.12;;
23346;SDS011;36852;45.466;11.066;2024-02-14T15:58:18;27.10;;;17.35;;
23346;SDS011;36852;45.466;11.066;2024-02-14T16:00:46;30.17;;;17.98;;
23346;SDS011;36852;45.466;11.066;2024-02-14T16:03:14;29.90;;;17.95;;
23346;SDS011;36852;45.466;11.066;2024-02-14T16:05:45;31.87;;;17.77;;
23346;SDS011;36852;45.466;11.066;2024-02-14T16:08:14;28.90;;;18.87;;
23346;SDS011;36852;45.466;11.066;2024-02-14T16:10:54;30.02;;;18.15;;
23346;SDS011;36852;45.466;11.066;2024-02-14T16:13:26;29.10;;;18.25;;
23346;SDS011;36852;45.466;11.066;2024-02-14T16:16:00;30.90;;;18.90;;
23346;SDS011;36852;45.466;11.066;2024-02-14T16:18:32;29.67;;;19.20;;
23346;SDS011;36852;45.466;11.066;2024-02-14T16:21:03;30.57;;;19.02;;
23346;SDS011;36852;45.466;11.066;2024-02-14T16:23:35;37.05;;;20.55;;
23346;SDS011;36852;45.466;11.066;2024-02-14T16:26:05;32.10;;;18.75;;
23346;SDS011;36852;45.466;11.066;2024-02-14T16:28:35;33.10;;;18.80;;
23346;SDS011;36852;45.466;11.066;2024-02-14T16:31:04;36.35;;;19.60;;
23346;SDS011;36852;45.466;11.066;2024-02-14T16:33:48;29.10;;;18.12;;
23346;SDS011;36852;45.466;11.066;2024-02-14T16:36:24;28.62;;;18.15;;
23346;SDS011;36852;45.466;11.066;2024-02-14T16:38:52;29.50;;;19.00;;
23346;SDS011;36852;45.466;11.066;2024-02-14T16:41:39;32.23;;;18.82;;
23346;SDS011;36852;45.466;11.066;2024-02-14T16:44:07;36.75;;;18.48;;
23346;SDS011;36852;45.466;11.066;2024-02-14T16:46:40;38.38;;;22.35;;
23346;SDS011;36852;45.466;11.066;2024-02-14T16:49:10;39.75;;;22.02;;
23346;SDS011;36852;45.466;11.066;2024-02-14T16:51:40;41.02;;;21.15;;
23346;SDS011;36852;45.466;11.066;2024-02-14T16:56:55;29.80;;;17.65;;
23346;SDS011;36852;45.466;11.066;2024-02-14T16:59:32;26.57;;;16.75;;
23346;SDS011;36852;45.466;11.066;2024-02-14T17:02:01;32.88;;;19.82;;
23346;SDS011;36852;45.466;11.066;2024-02-14T17:04:29;30.40;;;18.20;;
23346;SDS011;36852;45.466;11.066;2024-02-14T17:07:14;32.73;;;17.70;;
23346;SDS011;36852;45.466;11.066;2024-02-14T17:09:56;30.02;;;19.10;;
23346;SDS011;36852;45.466;11.066;2024-02-14T17:12:28;36.25;;;20.43;;
23346;SDS011;36852;45.466;11.066;2024-02-14T17:15:01;36.03;;;19.50;;
23346;SDS011;36852;45.466;11.066;2024-02-14T17:17:29;29.30;;;19.12;;
23346;SDS011;36852;45.466;11.066;2024-02-14T17:19:58;34.43;;;18.70;;
23346;SDS011;36852;45.466;11.066;2024-02-14T17:22:54;32.73;;;20.85;;
23346;SDS011;36852;45.466;11.066;2024-02-14T17:25:22;34.48;;;20.32;;
23346;SDS011;36852;45.466;11.066;2024-02-14T17:27:51;34.73;;;21.15;;
23346;SDS011;36852;45.466;11.066;2024-02-14T17:30:22;38.45;;;20.97;;
23346;SDS011;36852;45.466;11.066;2024-02-14T17:32:52;35.88;;;20.77;;
23346;SDS011;36852;45.466;11.066;2024-02-14T17:35:39;31.30;;;20.43;;
23346;SDS011;36852;45.466;11.066;2024-02-14T17:38:15;34.18;;;20.20;;
23346;SDS011;36852;45.466;11.066;2024-02-14T17:40:46;35.00;;;20.82;;
23346;SDS011;36852;45.466;11.066;2024-02-14T17:43:15;33.60;;;20.30;;
23346;SDS011;36852;45.466;11.066;2024-02-14T17:45:45;37.70;;;21.95;;
23346;SDS011;36852;45.466;11.066;2024-02-14T17:48:16;36.58;;;20.17;;
23346;SDS011;36852;45.466;11.066;2024-02-14T17:50:44;37.70;;;22.35;;
23346;SDS011;36852;45.466;11.066;2024-02-14T17:53:13;34.92;;;20.45;;
23346;SDS011;36852;45.466;11.066;2024-02-14T17:55:47;38.10;;;21.60;;
23346;SDS011;36852;45.466;11.066;2024-02-14T17:58:18;35.65;;;21.25;;
23346;SDS011;36852;45.466;11.066;2024-02-14T18:00:48;30.75;;;20.50;;
23346;SDS011;36852;45.466;11.066;2024-02-14T18:03:26;36.08;;;21.82;;
23346;SDS011;36852;45.466;11.066;2024-02-14T18:05:57;41.65;;;24.00;;
23346;SDS011;36852;45.466;11.066;2024-02-14T18:08:26;44.77;;;23.57;;
23346;SDS011;36852;45.466;11.066;2024-02-14T18:10:58;44.00;;;23.45;;
23346;SDS011;36852;45.466;11.066;2024-02-14T18:13:27;34.78;;;21.37;;
23346;SDS011;36852;45.466;11.066;2024-02-14T18:15:59;36.93;;;20.57;;
23346;SDS011;36852;45.466;11.066;2024-02-14T18:18:27;38.67;;;22.25;;
23346;SDS011;36852;45.466;11.066;2024-02-14T18:21:01;33.95;;;21.62;;
23346;SDS011;36852;45.466;11.066;2024-02-14T18:23:31;36.28;;;21.95;;
23346;SDS011;36852;45.466;11.066;2024-02-14T18:26:17;39.15;;;22.85;;
23346;SDS011;36852;45.466;11.066;2024-02-14T18:28:48;32.93;;;20.40;;
23346;SDS011;36852;45.466;11.066;2024-02-14T18:31:21;35.98;;;22.10;;
23346;SDS011;36852;45.466;11.066;2024-02-14T18:33:53;36.53;;;21.77;;
23346;SDS011;36852;45.466;11.066;2024-02-14T18:36:28;35.83;;;21.82;;
23346;SDS011;36852;45.466;11.066;2024-02-14T18:39:01;48.68;;;27.77;;
23346;SDS011;36852;45.466;11.066;2024-02-14T18:41:58;44.85;;;24.57;;
23346;SDS011;36852;45.466;11.066;2024-02-14T18:44:51;37.70;;;22.48;;
23346;SDS011;36852;45.466;11.066;2024-02-14T18:48:26;38.63;;;22.48;;
23346;SDS011;36852;45.466;11.066;2024-02-14T18:51:45;44.70;;;23.25;;
23346;SDS011;36852;45.466;11.066;2024-02-14T18:54:52;41.98;;;22.93;;
23346;SDS011;36852;45.466;11.066;2024-02-14T18:57:58;40.83;;;23.22;;
23346;SDS011;36852;45.466;11.066;2024-02-14T19:01:09;40.45;;;24.35;;
23346;SDS011;36852;45.466;11.066;2024-02-14T19:04:15;44.38;;;23.75;;
23346;SDS011;36852;45.466;11.066;2024-02-14T19:07:37;42.00;;;23.35;;
23346;SDS011;36852;45.466;11.066;2024-02-14T19:10:09;40.12;;;23.35;;
23346;SDS011;36852;45.466;11.066;2024-02-14T19:12:45;44.42;;;24.82;;
23346;SDS011;36852;45.466;11.066;2024-02-14T19:15:28;40.73;;;23.42;;
23346;SDS011;36852;45.466;11.066;2024-02-14T19:18:10;36.42;;;22.02;;
23346;SDS011;36852;45.466;11.066;2024-02-14T19:20:39;40.90;;;23.30;;
23346;SDS011;36852;45.466;11.066;2024-02-14T19:23:09;39.92;;;22.13;;
23346;SDS011;36852;45.466;11.066;2024-02-14T19:25:40;39.75;;;22.82;;
23346;SDS011;36852;45.466;11.066;2024-02-14T19:28:09;41.15;;;23.42;;
23346;SDS011;36852;45.466;11.066;2024-02-14T19:30:45;38.88;;;22.32;;
23346;SDS011;36852;45.466;11.066;2024-02-14T19:33:28;41.23;;;22.95;;
23346;SDS011;36852;45.466;11.066;2024-02-14T19:36:04;39.65;;;21.75;;
23346;SDS011;36852;45.466;11.066;2024-02-14T19:38:38;35.98;;;22.20;;
23346;SDS011;36852;45.466;11.066;2024-02-14T19:41:23;38.70;;;21.77;;
23346;SDS011;36852;45.466;11.066;2024-02-14T19:44:14;42.55;;;23.62;;
23346;SDS011;36852;45.466;11.066;2024-02-14T19:46:55;41.20;;;22.65;;
23346;SDS011;36852;45.466;11.066;2024-02-14T19:49:43;35.17;;;21.90;;
23346;SDS011;36852;45.466;11.066;2024-02-14T19:52:25;35.78;;;22.35;;
23346;SDS011;36852;45.466;11.066;2024-02-14T20:08:39;38.17;;;22.50;;
23346;SDS011;36852;45.466;11.066;2024-02-14T20:26:22;38.25;;;22.35;;
23346;SDS011;36852;45.466;11.066;2024-02-14T20:29:07;36.97;;;21.67;;
23346;SDS011;36852;45.466;11.066;2024-02-14T20:31:56;37.85;;;23.15;;
23346;SDS011;36852;45.466;11.066;2024-02-14T20:34:29;39.88;;;21.57;;
23346;SDS011;36852;45.466;11.066;2024-02-14T20:36:59;41.90;;;23.90;;
23346;SDS011;36852;45.466;11.066;2024-02-14T20:39:44;39.75;;;23.35;;
23346;SDS011;36852;45.466;11.066;2024-02-14T20:48:33;40.12;;;25.02;;
23346;SDS011;36852;45.466;11.066;2024-02-14T20:51:27;43.73;;;24.25;;
23346;SDS011;36852;45.466;11.066;2024-02-14T20:54:27;43.05;;;24.60;;
23346;SDS011;36852;45.466;11.066;2024-02-14T20:57:19;40.12;;;22.77;;
23346;SDS011;36852;45.466;11.066;2024-02-14T20:59:55;33.30;;;21.07;;
23346;SDS011;36852;45.466;11.066;2024-02-14T21:02:44;38.48;;;22.07;;
23346;SDS011;36852;45.466;11.066;2024-02-14T21:08:18;36.98;;;22.58;;
23346;SDS011;36852;45.466;11.066;2024-02-14T21:11:14;39.75;;;23.60;;
23346;SDS011;36852;45.466;11.066;2024-02-14T21:14:12;39.63;;;23.95;;
23346;SDS011;36852;45.466;11.066;2024-02-14T21:16:59;41.65;;;24.37;;
23346;SDS011;36852;45.466;11.066;2024-02-14T21:19:45;39.35;;;23.47;;
23346;SDS011;36852;45.466;11.066;2024-02-14T21:22:39;43.90;;;23.65;;
23346;SDS011;36852;45.466;11.066;2024-02-14T21:25:19;41.98;;;24.10;;
23346;SDS011;36852;45.466;11.066;2024-02-14T21:30:59;46.13;;;26.87;;
23346;SDS011;36852;45.466;11.066;2024-02-14T21:33:32;44.40;;;23.70;;
23346;SDS011;36852;45.466;11.066;2024-02-14T21:36:02;41.98;;;23.57;;
23346;SDS011;36852;45.466;11.066;2024-02-14T21:38:30;39.58;;;24.07;;
23346;SDS011;36852;45.466;11.066;2024-02-14T21:41:02;42.73;;;24.60;;
23346;SDS011;36852;45.466;11.066;2024-02-14T21:43:30;46.55;;;27.25;;
23346;SDS011;36852;45.466;11.066;2024-02-14T21:46:04;46.95;;;25.68;;
23346;SDS011;36852;45.466;11.066;2024-02-14T21:48:48;43.23;;;24.83;;
23346;SDS011;36852;45.466;11.066;2024-02-14T21:51:19;39.05;;;23.98;;
23346;SDS011;36852;45.466;11.066;2024-02-14T21:54:11;39.15;;;22.82;;
23346;SDS011;36852;45.466;11.066;2024-02-14T21:59:35;41.63;;;23.30;;
23346;SDS011;36852;45.466;11.066;2024-02-14T22:02:09;43.00;;;23.67;;
23346;SDS011;36852;45.466;11.066;2024-02-14T22:04:49;39.83;;;22.52;;
23346;SDS011;36852;45.466;11.066;2024-02-14T22:07:44;42.70;;;24.82;;
23346;SDS011;36852;45.466;11.066;2024-02-14T22:10:16;42.20;;;25.33;;
23346;SDS011;36852;45.466;11.066;2024-02-14T22:13:19;37.17;;;23.30;;
